sensor_id;sensor_type;location;lat;lon;timestamp;P1;durP1;ratioP1;P2;durP2;ratioP2
69226;SDS011;56334;52.398;7.552;2023-03-21T00:00:19;33.13;;;11.10;;
69226;SDS011;56334;52.398;7.552;2023-03-21T00:02:45;25.00;;;10.48;;
69226;SDS011;56334;52.398;7.552;2023-03-21T00:05:11;24.17;;;9.68;;
69226;SDS011;56334;52.398;7.552;2023-03-21T00:07:37;27.20;;;9.98;;
69226;SDS011;56334;52.398;7.552;2023-03-21T00:10:03;27.08;;;10.90;;
69226;SDS011;56334;52.398;7.552;2023-03-21T00:12:31;24.23;;;10.70;;
69226;SDS011;56334;52.398;7.552;2023-03-21T00:15:02;24.25;;;11.00;;
69226;SDS011;56334;52.398;7.552;2023-03-21T00:17:30;27.85;;;11.02;;
69226;SDS011;56334;52.398;7.552;2023-03-21T00:19:56;28.10;;;10.60;;
69226;SDS011;56334;52.398;7.552;2023-03-21T00:22:23;27.55;;;11.07;;
69226;SDS011;56334;52.398;7.552;2023-03-21T00:24:49;29.77;;;10.35;;
69226;SDS011;56334;52.398;7.552;2023-03-21T00:27:16;30.17;;;11.13;;
69226;SDS011;56334;52.398;7.552;2023-03-21T00:29:44;29.40;;;10.52;;
69226;SDS011;56334;52.398;7.552;2023-03-21T00:32:10;25.58;;;11.38;;
69226;SDS011;56334;52.398;7.552;2023-03-21T00:34:37;26.63;;;10.95;;
69226;SDS011;56334;52.398;7.552;2023-03-21T00:37:03;26.45;;;10.63;;
69226;SDS011;56334;52.398;7.552;2023-03-21T00:39:32;30.05;;;11.18;;
69226;SDS011;56334;52.398;7.552;2023-03-21T00:41:58;33.92;;;11.45;;
69226;SDS011;56334;52.398;7.552;2023-03-21T00:44:24;28.13;;;9.77;;
69226;SDS011;56334;52.398;7.552;2023-03-21T00:46:50;26.30;;;10.38;;
69226;SDS011;56334;52.398;7.552;2023-03-21T00:49:16;26.35;;;10.63;;
69226;SDS011;56334;52.398;7.552;2023-03-21T00:51:44;26.90;;;9.85;;
69226;SDS011;56334;52.398;7.552;2023-03-21T00:54:15;26.25;;;10.55;;
69226;SDS011;56334;52.398;7.552;2023-03-21T00:56:41;24.92;;;9.05;;
69226;SDS011;56334;52.398;7.552;2023-03-21T00:59:07;23.48;;;10.30;;
69226;SDS011;56334;52.398;7.552;2023-03-21T01:01:33;27.60;;;10.13;;
69226;SDS011;56334;52.398;7.552;2023-03-21T01:04:00;26.00;;;10.52;;
69226;SDS011;56334;52.398;7.552;2023-03-21T01:06:34;29.70;;;9.40;;
69226;SDS011;56334;52.398;7.552;2023-03-21T01:09:03;29.30;;;10.00;;
69226;SDS011;56334;52.398;7.552;2023-03-21T01:11:30;27.05;;;10.15;;
69226;SDS011;56334;52.398;7.552;2023-03-21T01:13:56;24.25;;;10.43;;
69226;SDS011;56334;52.398;7.552;2023-03-21T01:16:23;25.42;;;9.40;;
69226;SDS011;56334;52.398;7.552;2023-03-21T01:18:49;23.27;;;10.70;;
69226;SDS011;56334;52.398;7.552;2023-03-21T01:21:15;30.77;;;11.80;;
69226;SDS011;56334;52.398;7.552;2023-03-21T01:23:42;24.38;;;9.18;;
69226;SDS011;56334;52.398;7.552;2023-03-21T01:26:08;22.58;;;9.75;;
69226;SDS011;56334;52.398;7.552;2023-03-21T01:28:35;27.65;;;10.70;;
69226;SDS011;56334;52.398;7.552;2023-03-21T01:31:05;25.70;;;9.93;;
69226;SDS011;56334;52.398;7.552;2023-03-21T01:33:31;23.27;;;9.35;;
69226;SDS011;56334;52.398;7.552;2023-03-21T01:35:58;29.17;;;9.77;;
69226;SDS011;56334;52.398;7.552;2023-03-21T01:38:25;26.17;;;10.73;;
69226;SDS011;56334;52.398;7.552;2023-03-21T01:40:52;28.00;;;9.75;;
69226;SDS011;56334;52.398;7.552;2023-03-21T01:48:30;28.70;;;10.35;;
69226;SDS011;56334;52.398;7.552;2023-03-21T01:50:56;29.52;;;11.25;;
69226;SDS011;56334;52.398;7.552;2023-03-21T01:53:24;32.65;;;11.38;;
69226;SDS011;56334;52.398;7.552;2023-03-21T01:56:14;27.08;;;10.57;;
69226;SDS011;56334;52.398;7.552;2023-03-21T01:58:41;28.10;;;11.50;;
69226;SDS011;56334;52.398;7.552;2023-03-21T02:01:07;28.00;;;11.60;;
69226;SDS011;56334;52.398;7.552;2023-03-21T02:03:34;30.63;;;11.48;;
69226;SDS011;56334;52.398;7.552;2023-03-21T02:06:14;29.80;;;10.05;;
69226;SDS011;56334;52.398;7.552;2023-03-21T02:08:42;26.75;;;10.45;;
69226;SDS011;56334;52.398;7.552;2023-03-21T02:11:08;25.92;;;10.32;;
69226;SDS011;56334;52.398;7.552;2023-03-21T02:13:34;26.73;;;10.30;;
69226;SDS011;56334;52.398;7.552;2023-03-21T02:16:01;26.50;;;10.45;;
69226;SDS011;56334;52.398;7.552;2023-03-21T02:18:42;27.35;;;10.45;;
69226;SDS011;56334;52.398;7.552;2023-03-21T02:28:56;29.40;;;10.95;;
69226;SDS011;56334;52.398;7.552;2023-03-21T02:39:07;30.92;;;11.57;;
69226;SDS011;56334;52.398;7.552;2023-03-21T02:41:50;26.50;;;10.43;;
69226;SDS011;56334;52.398;7.552;2023-03-21T02:44:21;35.20;;;12.25;;
69226;SDS011;56334;52.398;7.552;2023-03-21T02:46:52;30.90;;;11.25;;
69226;SDS011;56334;52.398;7.552;2023-03-21T02:49:25;29.20;;;12.23;;
69226;SDS011;56334;52.398;7.552;2023-03-21T02:51:52;26.63;;;11.68;;
69226;SDS011;56334;52.398;7.552;2023-03-21T02:54:20;31.98;;;11.55;;
69226;SDS011;56334;52.398;7.552;2023-03-21T02:56:48;30.38;;;10.98;;
69226;SDS011;56334;52.398;7.552;2023-03-21T02:59:16;27.90;;;11.13;;
69226;SDS011;56334;52.398;7.552;2023-03-21T03:01:42;27.35;;;10.43;;
69226;SDS011;56334;52.398;7.552;2023-03-21T03:04:16;26.83;;;11.02;;
69226;SDS011;56334;52.398;7.552;2023-03-21T03:12:24;25.95;;;11.07;;
69226;SDS011;56334;52.398;7.552;2023-03-21T03:14:57;27.48;;;11.13;;
69226;SDS011;56334;52.398;7.552;2023-03-21T03:22:42;23.88;;;10.23;;
69226;SDS011;56334;52.398;7.552;2023-03-21T03:25:11;21.80;;;9.80;;
69226;SDS011;56334;52.398;7.552;2023-03-21T03:27:39;25.58;;;10.52;;
69226;SDS011;56334;52.398;7.552;2023-03-21T03:30:08;28.25;;;11.07;;
69226;SDS011;56334;52.398;7.552;2023-03-21T03:32:35;28.88;;;11.23;;
69226;SDS011;56334;52.398;7.552;2023-03-21T03:35:03;26.27;;;10.80;;
69226;SDS011;56334;52.398;7.552;2023-03-21T03:37:31;24.60;;;9.32;;
69226;SDS011;56334;52.398;7.552;2023-03-21T03:40:00;23.73;;;10.10;;
69226;SDS011;56334;52.398;7.552;2023-03-21T03:42:34;25.83;;;10.55;;
69226;SDS011;56334;52.398;7.552;2023-03-21T03:45:01;28.75;;;10.95;;
69226;SDS011;56334;52.398;7.552;2023-03-21T03:50:02;26.70;;;11.32;;
69226;SDS011;56334;52.398;7.552;2023-03-21T03:52:35;31.05;;;11.50;;
69226;SDS011;56334;52.398;7.552;2023-03-21T03:55:04;28.45;;;11.50;;
69226;SDS011;56334;52.398;7.552;2023-03-21T03:57:30;25.67;;;10.70;;
69226;SDS011;56334;52.398;7.552;2023-03-21T03:59:57;28.08;;;10.60;;
69226;SDS011;56334;52.398;7.552;2023-03-21T04:02:23;25.83;;;10.70;;
69226;SDS011;56334;52.398;7.552;2023-03-21T04:04:49;25.10;;;10.30;;
69226;SDS011;56334;52.398;7.552;2023-03-21T04:07:18;24.92;;;10.38;;
69226;SDS011;56334;52.398;7.552;2023-03-21T04:09:45;27.20;;;11.43;;
69226;SDS011;56334;52.398;7.552;2023-03-21T04:12:11;26.77;;;10.13;;
69226;SDS011;56334;52.398;7.552;2023-03-21T04:14:37;26.25;;;11.20;;
69226;SDS011;56334;52.398;7.552;2023-03-21T04:17:04;27.80;;;11.00;;
69226;SDS011;56334;52.398;7.552;2023-03-21T04:19:30;28.15;;;11.57;;
69226;SDS011;56334;52.398;7.552;2023-03-21T04:21:56;26.95;;;10.50;;
69226;SDS011;56334;52.398;7.552;2023-03-21T04:24:22;23.52;;;10.48;;
69226;SDS011;56334;52.398;7.552;2023-03-21T04:26:48;31.95;;;12.52;;
69226;SDS011;56334;52.398;7.552;2023-03-21T04:29:18;30.27;;;12.77;;
69226;SDS011;56334;52.398;7.552;2023-03-21T04:31:44;26.00;;;10.95;;
69226;SDS011;56334;52.398;7.552;2023-03-21T04:34:13;27.30;;;12.18;;
69226;SDS011;56334;52.398;7.552;2023-03-21T04:36:40;27.55;;;11.50;;
69226;SDS011;56334;52.398;7.552;2023-03-21T04:39:13;27.60;;;10.88;;
69226;SDS011;56334;52.398;7.552;2023-03-21T04:41:40;30.42;;;11.50;;
69226;SDS011;56334;52.398;7.552;2023-03-21T04:44:07;29.33;;;11.55;;
69226;SDS011;56334;52.398;7.552;2023-03-21T04:46:33;33.22;;;12.23;;
69226;SDS011;56334;52.398;7.552;2023-03-21T04:49:00;28.20;;;11.32;;
69226;SDS011;56334;52.398;7.552;2023-03-21T04:51:26;28.58;;;12.07;;
69226;SDS011;56334;52.398;7.552;2023-03-21T04:53:53;29.02;;;11.48;;
69226;SDS011;56334;52.398;7.552;2023-03-21T04:56:25;27.27;;;12.18;;
69226;SDS011;56334;52.398;7.552;2023-03-21T04:59:00;27.90;;;11.95;;
69226;SDS011;56334;52.398;7.552;2023-03-21T05:01:26;29.52;;;11.65;;
69226;SDS011;56334;52.398;7.552;2023-03-21T05:03:56;29.70;;;11.40;;
69226;SDS011;56334;52.398;7.552;2023-03-21T05:06:22;28.50;;;11.43;;
69226;SDS011;56334;52.398;7.552;2023-03-21T05:08:48;30.77;;;11.70;;
69226;SDS011;56334;52.398;7.552;2023-03-21T05:11:14;29.20;;;12.27;;
69226;SDS011;56334;52.398;7.552;2023-03-21T05:13:40;29.20;;;11.98;;
69226;SDS011;56334;52.398;7.552;2023-03-21T05:16:06;28.92;;;11.32;;
69226;SDS011;56334;52.398;7.552;2023-03-21T05:18:33;28.80;;;11.80;;
69226;SDS011;56334;52.398;7.552;2023-03-21T05:21:02;31.05;;;11.32;;
69226;SDS011;56334;52.398;7.552;2023-03-21T05:23:32;29.27;;;11.18;;
69226;SDS011;56334;52.398;7.552;2023-03-21T05:26:02;27.58;;;11.18;;
69226;SDS011;56334;52.398;7.552;2023-03-21T05:28:28;28.50;;;11.27;;
69226;SDS011;56334;52.398;7.552;2023-03-21T05:30:55;27.42;;;11.85;;
69226;SDS011;56334;52.398;7.552;2023-03-21T05:33:21;31.33;;;11.02;;
69226;SDS011;56334;52.398;7.552;2023-03-21T05:35:50;26.98;;;10.98;;
69226;SDS011;56334;52.398;7.552;2023-03-21T05:38:16;29.27;;;12.07;;
69226;SDS011;56334;52.398;7.552;2023-03-21T05:40:46;33.40;;;12.98;;
69226;SDS011;56334;52.398;7.552;2023-03-21T05:43:12;27.27;;;10.50;;
69226;SDS011;56334;52.398;7.552;2023-03-21T05:45:38;30.98;;;11.73;;
69226;SDS011;56334;52.398;7.552;2023-03-21T05:48:04;28.38;;;10.85;;
69226;SDS011;56334;52.398;7.552;2023-03-21T05:50:30;28.27;;;10.30;;
69226;SDS011;56334;52.398;7.552;2023-03-21T05:52:56;27.52;;;10.70;;
69226;SDS011;56334;52.398;7.552;2023-03-21T05:55:22;27.80;;;10.25;;
69226;SDS011;56334;52.398;7.552;2023-03-21T05:57:48;26.83;;;10.60;;
69226;SDS011;56334;52.398;7.552;2023-03-21T06:00:15;24.88;;;9.80;;
69226;SDS011;56334;52.398;7.552;2023-03-21T06:02:41;27.50;;;9.77;;
69226;SDS011;56334;52.398;7.552;2023-03-21T06:05:07;24.52;;;9.77;;
69226;SDS011;56334;52.398;7.552;2023-03-21T06:07:33;24.63;;;9.43;;
69226;SDS011;56334;52.398;7.552;2023-03-21T06:10:02;23.23;;;8.88;;
69226;SDS011;56334;52.398;7.552;2023-03-21T06:12:28;22.38;;;8.55;;
69226;SDS011;56334;52.398;7.552;2023-03-21T06:14:54;24.95;;;9.65;;
69226;SDS011;56334;52.398;7.552;2023-03-21T06:17:21;28.52;;;9.73;;
69226;SDS011;56334;52.398;7.552;2023-03-21T06:19:47;24.25;;;9.02;;
69226;SDS011;56334;52.398;7.552;2023-03-21T06:22:13;20.35;;;7.90;;
69226;SDS011;56334;52.398;7.552;2023-03-21T06:24:39;24.92;;;9.10;;
69226;SDS011;56334;52.398;7.552;2023-03-21T06:27:05;26.85;;;9.23;;
69226;SDS011;56334;52.398;7.552;2023-03-21T06:29:31;21.10;;;8.48;;
69226;SDS011;56334;52.398;7.552;2023-03-21T06:31:57;25.40;;;8.63;;
69226;SDS011;56334;52.398;7.552;2023-03-21T06:34:25;26.67;;;9.30;;
69226;SDS011;56334;52.398;7.552;2023-03-21T06:36:51;21.63;;;9.25;;
69226;SDS011;56334;52.398;7.552;2023-03-21T06:39:18;22.95;;;8.52;;
69226;SDS011;56334;52.398;7.552;2023-03-21T06:41:44;23.63;;;8.15;;
69226;SDS011;56334;52.398;7.552;2023-03-21T06:44:10;23.17;;;9.38;;
69226;SDS011;56334;52.398;7.552;2023-03-21T06:46:36;23.05;;;7.13;;
69226;SDS011;56334;52.398;7.552;2023-03-21T06:49:02;21.13;;;8.85;;
69226;SDS011;56334;52.398;7.552;2023-03-21T06:51:29;18.10;;;7.10;;
69226;SDS011;56334;52.398;7.552;2023-03-21T06:53:55;21.02;;;7.47;;
69226;SDS011;56334;52.398;7.552;2023-03-21T06:56:21;20.67;;;8.02;;
69226;SDS011;56334;52.398;7.552;2023-03-21T06:58:47;18.88;;;7.05;;
69226;SDS011;56334;52.398;7.552;2023-03-21T07:01:13;20.63;;;7.65;;
69226;SDS011;56334;52.398;7.552;2023-03-21T07:03:39;22.92;;;7.65;;
69226;SDS011;56334;52.398;7.552;2023-03-21T07:06:06;23.20;;;7.53;;
69226;SDS011;56334;52.398;7.552;2023-03-21T07:08:38;24.08;;;7.90;;
69226;SDS011;56334;52.398;7.552;2023-03-21T07:11:05;18.75;;;7.10;;
69226;SDS011;56334;52.398;7.552;2023-03-21T07:13:32;16.00;;;6.80;;
69226;SDS011;56334;52.398;7.552;2023-03-21T07:15:58;19.33;;;7.20;;
69226;SDS011;56334;52.398;7.552;2023-03-21T07:18:25;23.70;;;7.63;;
69226;SDS011;56334;52.398;7.552;2023-03-21T07:20:51;19.30;;;6.75;;
69226;SDS011;56334;52.398;7.552;2023-03-21T07:23:17;20.75;;;8.00;;
69226;SDS011;56334;52.398;7.552;2023-03-21T07:25:44;22.40;;;7.72;;
69226;SDS011;56334;52.398;7.552;2023-03-21T07:28:10;23.15;;;7.88;;
69226;SDS011;56334;52.398;7.552;2023-03-21T07:30:36;23.13;;;7.72;;
69226;SDS011;56334;52.398;7.552;2023-03-21T07:33:03;18.77;;;7.93;;
69226;SDS011;56334;52.398;7.552;2023-03-21T07:35:29;20.77;;;7.32;;
69226;SDS011;56334;52.398;7.552;2023-03-21T07:37:56;20.58;;;7.20;;
69226;SDS011;56334;52.398;7.552;2023-03-21T07:40:22;20.38;;;7.20;;
69226;SDS011;56334;52.398;7.552;2023-03-21T07:42:48;21.92;;;7.28;;
69226;SDS011;56334;52.398;7.552;2023-03-21T07:45:17;21.48;;;7.70;;
69226;SDS011;56334;52.398;7.552;2023-03-21T07:47:48;22.70;;;7.15;;
69226;SDS011;56334;52.398;7.552;2023-03-21T07:50:14;20.35;;;7.35;;
69226;SDS011;56334;52.398;7.552;2023-03-21T07:52:40;19.20;;;7.45;;
69226;SDS011;56334;52.398;7.552;2023-03-21T07:55:06;19.42;;;7.82;;
69226;SDS011;56334;52.398;7.552;2023-03-21T07:57:33;22.05;;;8.13;;
69226;SDS011;56334;52.398;7.552;2023-03-21T07:59:59;19.27;;;8.65;;
69226;SDS011;56334;52.398;7.552;2023-03-21T08:02:25;20.13;;;7.25;;
69226;SDS011;56334;52.398;7.552;2023-03-21T08:04:51;21.80;;;8.55;;
69226;SDS011;56334;52.398;7.552;2023-03-21T08:07:17;21.83;;;9.15;;
69226;SDS011;56334;52.398;7.552;2023-03-21T08:09:43;22.27;;;9.00;;
69226;SDS011;56334;52.398;7.552;2023-03-21T08:12:10;24.40;;;9.68;;
69226;SDS011;56334;52.398;7.552;2023-03-21T08:14:37;26.73;;;11.98;;
69226;SDS011;56334;52.398;7.552;2023-03-21T08:17:04;27.63;;;12.68;;
69226;SDS011;56334;52.398;7.552;2023-03-21T08:19:30;25.70;;;12.13;;
69226;SDS011;56334;52.398;7.552;2023-03-21T08:21:56;24.60;;;10.32;;
69226;SDS011;56334;52.398;7.552;2023-03-21T08:24:26;24.05;;;10.50;;
69226;SDS011;56334;52.398;7.552;2023-03-21T08:26:52;26.73;;;10.15;;
69226;SDS011;56334;52.398;7.552;2023-03-21T08:29:20;24.98;;;9.70;;
69226;SDS011;56334;52.398;7.552;2023-03-21T08:31:49;24.42;;;10.88;;
69226;SDS011;56334;52.398;7.552;2023-03-21T08:34:15;28.25;;;10.88;;
69226;SDS011;56334;52.398;7.552;2023-03-21T08:36:42;25.05;;;10.48;;
69226;SDS011;56334;52.398;7.552;2023-03-21T08:39:08;20.52;;;9.68;;
69226;SDS011;56334;52.398;7.552;2023-03-21T08:41:35;25.88;;;10.60;;
69226;SDS011;56334;52.398;7.552;2023-03-21T08:46:28;25.90;;;10.13;;
69226;SDS011;56334;52.398;7.552;2023-03-21T08:48:55;25.75;;;9.32;;
69226;SDS011;56334;52.398;7.552;2023-03-21T08:51:21;24.80;;;10.65;;
69226;SDS011;56334;52.398;7.552;2023-03-21T08:53:47;22.60;;;9.20;;
69226;SDS011;56334;52.398;7.552;2023-03-21T08:56:33;25.67;;;10.05;;
69226;SDS011;56334;52.398;7.552;2023-03-21T08:58:59;27.30;;;10.77;;
69226;SDS011;56334;52.398;7.552;2023-03-21T09:01:27;24.75;;;10.60;;
69226;SDS011;56334;52.398;7.552;2023-03-21T09:03:53;24.98;;;11.18;;
69226;SDS011;56334;52.398;7.552;2023-03-21T09:06:19;27.83;;;10.68;;
69226;SDS011;56334;52.398;7.552;2023-03-21T09:08:45;26.80;;;10.02;;
69226;SDS011;56334;52.398;7.552;2023-03-21T09:11:12;24.10;;;11.07;;
69226;SDS011;56334;52.398;7.552;2023-03-21T09:13:38;25.45;;;10.77;;
69226;SDS011;56334;52.398;7.552;2023-03-21T09:16:04;28.20;;;11.43;;
69226;SDS011;56334;52.398;7.552;2023-03-21T09:18:31;29.42;;;11.38;;
69226;SDS011;56334;52.398;7.552;2023-03-21T09:21:10;28.23;;;11.18;;
69226;SDS011;56334;52.398;7.552;2023-03-21T09:23:39;25.38;;;10.95;;
69226;SDS011;56334;52.398;7.552;2023-03-21T09:26:06;29.20;;;10.48;;
69226;SDS011;56334;52.398;7.552;2023-03-21T09:28:33;26.75;;;11.10;;
69226;SDS011;56334;52.398;7.552;2023-03-21T09:31:00;32.33;;;11.32;;
69226;SDS011;56334;52.398;7.552;2023-03-21T09:33:29;29.33;;;10.70;;
69226;SDS011;56334;52.398;7.552;2023-03-21T09:35:56;28.88;;;11.10;;
69226;SDS011;56334;52.398;7.552;2023-03-21T09:38:24;24.20;;;10.18;;
69226;SDS011;56334;52.398;7.552;2023-03-21T09:48:45;26.02;;;11.82;;
69226;SDS011;56334;52.398;7.552;2023-03-21T09:51:15;26.83;;;11.45;;
69226;SDS011;56334;52.398;7.552;2023-03-21T09:53:43;24.63;;;12.00;;
69226;SDS011;56334;52.398;7.552;2023-03-21T09:56:11;30.02;;;12.27;;
69226;SDS011;56334;52.398;7.552;2023-03-21T09:58:45;31.45;;;13.93;;
69226;SDS011;56334;52.398;7.552;2023-03-21T10:01:27;29.05;;;13.52;;
69226;SDS011;56334;52.398;7.552;2023-03-21T10:03:56;34.17;;;14.20;;
69226;SDS011;56334;52.398;7.552;2023-03-21T10:06:25;31.42;;;14.45;;
69226;SDS011;56334;52.398;7.552;2023-03-21T10:08:56;32.30;;;13.93;;
69226;SDS011;56334;52.398;7.552;2023-03-21T10:11:24;32.25;;;13.68;;
69226;SDS011;56334;52.398;7.552;2023-03-21T10:18:54;33.08;;;13.10;;
69226;SDS011;56334;52.398;7.552;2023-03-21T10:21:24;30.25;;;13.60;;
69226;SDS011;56334;52.398;7.552;2023-03-21T10:23:52;29.58;;;13.27;;
69226;SDS011;56334;52.398;7.552;2023-03-21T10:26:23;33.00;;;14.20;;
69226;SDS011;56334;52.398;7.552;2023-03-21T10:28:57;26.08;;;11.07;;
69226;SDS011;56334;52.398;7.552;2023-03-21T10:31:24;31.90;;;12.88;;
69226;SDS011;56334;52.398;7.552;2023-03-21T10:36:26;27.50;;;12.43;;
69226;SDS011;56334;52.398;7.552;2023-03-21T10:39:04;32.22;;;13.30;;
69226;SDS011;56334;52.398;7.552;2023-03-21T10:41:31;29.65;;;13.23;;
69226;SDS011;56334;52.398;7.552;2023-03-21T10:44:11;31.42;;;13.52;;
69226;SDS011;56334;52.398;7.552;2023-03-21T10:46:47;25.23;;;11.43;;
69226;SDS011;56334;52.398;7.552;2023-03-21T10:49:14;27.75;;;11.93;;
69226;SDS011;56334;52.398;7.552;2023-03-21T10:51:40;29.80;;;12.45;;
69226;SDS011;56334;52.398;7.552;2023-03-21T10:54:07;22.70;;;9.77;;
69226;SDS011;56334;52.398;7.552;2023-03-21T10:56:37;26.65;;;11.38;;
69226;SDS011;56334;52.398;7.552;2023-03-21T10:59:04;22.85;;;11.02;;
69226;SDS011;56334;52.398;7.552;2023-03-21T11:01:36;18.52;;;8.13;;
69226;SDS011;56334;52.398;7.552;2023-03-21T11:04:13;21.20;;;8.98;;
69226;SDS011;56334;52.398;7.552;2023-03-21T11:06:42;20.50;;;9.60;;
69226;SDS011;56334;52.398;7.552;2023-03-21T11:09:18;24.25;;;9.55;;
69226;SDS011;56334;52.398;7.552;2023-03-21T11:17:22;18.85;;;8.40;;
69226;SDS011;56334;52.398;7.552;2023-03-21T11:22:21;19.58;;;9.23;;
69226;SDS011;56334;52.398;7.552;2023-03-21T11:24:49;21.60;;;9.73;;
69226;SDS011;56334;52.398;7.552;2023-03-21T11:27:18;21.30;;;9.15;;
69226;SDS011;56334;52.398;7.552;2023-03-21T11:29:45;20.02;;;9.07;;
69226;SDS011;56334;52.398;7.552;2023-03-21T11:32:25;26.48;;;9.43;;
69226;SDS011;56334;52.398;7.552;2023-03-21T11:34:56;19.63;;;9.60;;
69226;SDS011;56334;52.398;7.552;2023-03-21T11:42:41;21.58;;;10.05;;
69226;SDS011;56334;52.398;7.552;2023-03-21T11:47:47;23.13;;;10.02;;
69226;SDS011;56334;52.398;7.552;2023-03-21T11:55:23;23.13;;;10.05;;
69226;SDS011;56334;52.398;7.552;2023-03-21T11:57:56;23.15;;;10.02;;
69226;SDS011;56334;52.398;7.552;2023-03-21T12:00:33;22.38;;;10.32;;
69226;SDS011;56334;52.398;7.552;2023-03-21T12:05:52;23.88;;;11.73;;
69226;SDS011;56334;52.398;7.552;2023-03-21T12:10:51;29.33;;;12.50;;
69226;SDS011;56334;52.398;7.552;2023-03-21T12:18:28;29.75;;;13.02;;
69226;SDS011;56334;52.398;7.552;2023-03-21T12:20:58;33.63;;;13.32;;
69226;SDS011;56334;52.398;7.552;2023-03-21T12:25:53;30.58;;;12.85;;
69226;SDS011;56334;52.398;7.552;2023-03-21T12:34:01;28.45;;;11.70;;
69226;SDS011;56334;52.398;7.552;2023-03-21T12:41:43;28.92;;;12.50;;
69226;SDS011;56334;52.398;7.552;2023-03-21T12:44:19;26.13;;;11.38;;
69226;SDS011;56334;52.398;7.552;2023-03-21T12:46:47;27.08;;;12.40;;
69226;SDS011;56334;52.398;7.552;2023-03-21T12:52:07;29.27;;;12.70;;
69226;SDS011;56334;52.398;7.552;2023-03-21T12:54:35;28.80;;;12.73;;
69226;SDS011;56334;52.398;7.552;2023-03-21T12:57:05;31.25;;;13.82;;
69226;SDS011;56334;52.398;7.552;2023-03-21T12:59:42;27.70;;;13.27;;
69226;SDS011;56334;52.398;7.552;2023-03-21T13:04:48;31.73;;;13.52;;
69226;SDS011;56334;52.398;7.552;2023-03-21T13:07:17;28.42;;;13.80;;
69226;SDS011;56334;52.398;7.552;2023-03-21T13:09:45;31.05;;;14.57;;
69226;SDS011;56334;52.398;7.552;2023-03-21T13:12:20;27.83;;;12.68;;
69226;SDS011;56334;52.398;7.552;2023-03-21T13:17:43;23.20;;;11.07;;
69226;SDS011;56334;52.398;7.552;2023-03-21T13:20:15;29.23;;;11.40;;
69226;SDS011;56334;52.398;7.552;2023-03-21T13:22:44;29.02;;;12.75;;
69226;SDS011;56334;52.398;7.552;2023-03-21T13:25:21;27.65;;;11.77;;
69226;SDS011;56334;52.398;7.552;2023-03-21T13:27:53;21.15;;;9.85;;
69226;SDS011;56334;52.398;7.552;2023-03-21T13:32:47;23.80;;;11.35;;
69226;SDS011;56334;52.398;7.552;2023-03-21T13:35:15;18.73;;;8.77;;
69226;SDS011;56334;52.398;7.552;2023-03-21T13:40:19;19.50;;;8.40;;
69226;SDS011;56334;52.398;7.552;2023-03-21T13:42:47;22.20;;;9.68;;
69226;SDS011;56334;52.398;7.552;2023-03-21T13:45:22;19.13;;;7.93;;
69226;SDS011;56334;52.398;7.552;2023-03-21T13:47:53;17.63;;;7.90;;
69226;SDS011;56334;52.398;7.552;2023-03-21T13:50:25;17.50;;;7.88;;
69226;SDS011;56334;52.398;7.552;2023-03-21T13:55:28;19.60;;;8.30;;
69226;SDS011;56334;52.398;7.552;2023-03-21T13:57:55;17.27;;;8.35;;
69226;SDS011;56334;52.398;7.552;2023-03-21T14:00:28;17.35;;;7.47;;
69226;SDS011;56334;52.398;7.552;2023-03-21T14:03:05;18.33;;;8.07;;
69226;SDS011;56334;52.398;7.552;2023-03-21T14:05:31;20.08;;;7.53;;
69226;SDS011;56334;52.398;7.552;2023-03-21T14:08:09;16.75;;;7.15;;
69226;SDS011;56334;52.398;7.552;2023-03-21T14:10:47;17.17;;;6.70;;
69226;SDS011;56334;52.398;7.552;2023-03-21T14:13:18;18.08;;;7.68;;
69226;SDS011;56334;52.398;7.552;2023-03-21T14:18:14;14.45;;;6.35;;
69226;SDS011;56334;52.398;7.552;2023-03-21T14:20:42;15.40;;;6.78;;
69226;SDS011;56334;52.398;7.552;2023-03-21T14:23:13;16.45;;;6.95;;
69226;SDS011;56334;52.398;7.552;2023-03-21T14:25:39;18.08;;;6.38;;
69226;SDS011;56334;52.398;7.552;2023-03-21T14:28:12;12.38;;;5.93;;
69226;SDS011;56334;52.398;7.552;2023-03-21T14:30:39;14.25;;;5.60;;
69226;SDS011;56334;52.398;7.552;2023-03-21T14:35:54;18.73;;;5.68;;
69226;SDS011;56334;52.398;7.552;2023-03-21T14:38:24;14.30;;;5.75;;
69226;SDS011;56334;52.398;7.552;2023-03-21T14:40:52;14.25;;;5.30;;
69226;SDS011;56334;52.398;7.552;2023-03-21T14:43:19;14.15;;;5.65;;
69226;SDS011;56334;52.398;7.552;2023-03-21T14:45:49;14.93;;;5.10;;
69226;SDS011;56334;52.398;7.552;2023-03-21T14:48:19;12.75;;;4.68;;
69226;SDS011;56334;52.398;7.552;2023-03-21T14:50:50;14.95;;;5.63;;
69226;SDS011;56334;52.398;7.552;2023-03-21T14:55:54;13.10;;;5.30;;
69226;SDS011;56334;52.398;7.552;2023-03-21T14:58:21;14.73;;;4.95;;
69226;SDS011;56334;52.398;7.552;2023-03-21T15:00:48;16.83;;;5.72;;
69226;SDS011;56334;52.398;7.552;2023-03-21T15:03:18;13.43;;;4.97;;
69226;SDS011;56334;52.398;7.552;2023-03-21T15:05:45;13.43;;;4.57;;
69226;SDS011;56334;52.398;7.552;2023-03-21T15:08:13;13.75;;;5.13;;
69226;SDS011;56334;52.398;7.552;2023-03-21T15:10:40;11.50;;;4.55;;
69226;SDS011;56334;52.398;7.552;2023-03-21T15:13:17;11.95;;;4.97;;
69226;SDS011;56334;52.398;7.552;2023-03-21T15:15:45;14.63;;;5.53;;
69226;SDS011;56334;52.398;7.552;2023-03-21T15:18:16;14.85;;;5.20;;
69226;SDS011;56334;52.398;7.552;2023-03-21T15:20:45;14.32;;;5.50;;
69226;SDS011;56334;52.398;7.552;2023-03-21T15:23:14;14.60;;;5.03;;
69226;SDS011;56334;52.398;7.552;2023-03-21T15:25:42;14.60;;;4.82;;
69226;SDS011;56334;52.398;7.552;2023-03-21T15:28:11;14.75;;;5.18;;
69226;SDS011;56334;52.398;7.552;2023-03-21T15:30:37;14.25;;;4.65;;
69226;SDS011;56334;52.398;7.552;2023-03-21T15:33:11;13.60;;;5.18;;
69226;SDS011;56334;52.398;7.552;2023-03-21T15:35:38;12.50;;;5.47;;
69226;SDS011;56334;52.398;7.552;2023-03-21T15:38:05;16.80;;;5.32;;
69226;SDS011;56334;52.398;7.552;2023-03-21T15:40:32;15.05;;;5.18;;
69226;SDS011;56334;52.398;7.552;2023-03-21T15:43:12;16.45;;;5.70;;
69226;SDS011;56334;52.398;7.552;2023-03-21T15:45:47;11.85;;;4.90;;
69226;SDS011;56334;52.398;7.552;2023-03-21T15:48:14;14.50;;;6.00;;
69226;SDS011;56334;52.398;7.552;2023-03-21T15:50:49;14.15;;;5.38;;
69226;SDS011;56334;52.398;7.552;2023-03-21T15:53:17;14.45;;;5.03;;
69226;SDS011;56334;52.398;7.552;2023-03-21T15:55:55;12.48;;;5.30;;
69226;SDS011;56334;52.398;7.552;2023-03-21T15:58:22;15.18;;;5.53;;
69226;SDS011;56334;52.398;7.552;2023-03-21T16:00:51;12.85;;;5.07;;
69226;SDS011;56334;52.398;7.552;2023-03-21T16:03:20;12.05;;;5.45;;
69226;SDS011;56334;52.398;7.552;2023-03-21T16:06:13;13.35;;;5.68;;
69226;SDS011;56334;52.398;7.552;2023-03-21T16:08:45;15.15;;;5.68;;
69226;SDS011;56334;52.398;7.552;2023-03-21T16:13:49;11.98;;;5.00;;
69226;SDS011;56334;52.398;7.552;2023-03-21T16:16:27;11.40;;;5.25;;
69226;SDS011;56334;52.398;7.552;2023-03-21T16:18:56;12.57;;;4.82;;
69226;SDS011;56334;52.398;7.552;2023-03-21T16:21:24;11.93;;;5.22;;
69226;SDS011;56334;52.398;7.552;2023-03-21T16:23:51;13.02;;;5.07;;
69226;SDS011;56334;52.398;7.552;2023-03-21T16:26:18;11.18;;;4.55;;
69226;SDS011;56334;52.398;7.552;2023-03-21T16:28:46;13.95;;;5.35;;
69226;SDS011;56334;52.398;7.552;2023-03-21T16:31:16;12.32;;;4.80;;
69226;SDS011;56334;52.398;7.552;2023-03-21T16:33:42;10.70;;;3.90;;
69226;SDS011;56334;52.398;7.552;2023-03-21T16:36:13;13.68;;;4.60;;
69226;SDS011;56334;52.398;7.552;2023-03-21T16:38:42;14.73;;;5.20;;